createdAt,value
2018-09-15T00:01:24.998Z,15.57
2018-09-15T00:03:54.143Z,15.33
2018-09-15T00:06:23.178Z,15.90
2018-09-15T00:08:52.383Z,13.50
2018-09-15T00:11:21.472Z,15.20
2018-09-15T00:13:50.547Z,14.57
2018-09-15T00:16:19.690Z,14.37
2018-09-15T00:18:48.758Z,15.20
2018-09-15T00:21:17.801Z,14.83
2018-09-15T00:23:46.857Z,15.03
2018-09-15T00:26:16.005Z,13.13
2018-09-15T00:28:45.085Z,16.47
2018-09-15T00:31:14.197Z,15.40
2018-09-15T00:33:43.289Z,16.03
2018-09-15T00:36:12.414Z,14.00
2018-09-15T00:38:41.686Z,15.20
2018-09-15T00:41:10.765Z,12.90
2018-09-15T00:43:40.725Z,13.87
2018-09-15T00:46:10.445Z,13.40
2018-09-15T00:48:39.511Z,13.40
2018-09-15T00:51:08.568Z,14.20
2018-09-15T00:53:37.658Z,13.10
2018-09-15T00:56:06.759Z,12.50
2018-09-15T00:58:35.957Z,13.53
2018-09-15T01:01:05.047Z,14.03
2018-09-15T01:03:34.097Z,13.20
2018-09-15T01:06:03.258Z,14.43
2018-09-15T01:08:32.452Z,14.60
2018-09-15T01:11:01.723Z,14.07
2018-09-15T01:13:30.876Z,15.50
2018-09-15T01:15:59.982Z,15.37
2018-09-15T01:18:29.412Z,14.97
2018-09-15T01:20:58.533Z,16.07
2018-09-15T01:23:27.661Z,16.40
2018-09-15T01:25:56.692Z,15.40
2018-09-15T01:28:26.249Z,15.00
2018-09-15T01:30:55.524Z,14.60
2018-09-15T01:33:24.737Z,14.13
2018-09-15T01:35:53.865Z,15.10
2018-09-15T01:38:22.941Z,14.40
2018-09-15T01:40:51.996Z,17.23
2018-09-15T01:43:21.152Z,17.27
2018-09-15T01:45:50.184Z,16.57
2018-09-15T01:48:19.349Z,16.17
2018-09-15T01:50:48.505Z,17.73
2018-09-15T01:53:18.264Z,16.80
2018-09-15T01:55:48.371Z,15.80
2018-09-15T01:58:17.532Z,16.83
2018-09-15T02:00:46.648Z,16.80
2018-09-15T02:03:16.505Z,16.07
2018-09-15T02:05:45.640Z,15.67
2018-09-15T02:08:15.244Z,16.17
2018-09-15T02:10:44.305Z,17.83
2018-09-15T02:13:13.471Z,17.27
2018-09-15T02:15:42.516Z,16.60
2018-09-15T02:18:11.692Z,16.00
2018-09-15T02:20:41.369Z,17.80
2018-09-15T02:23:10.441Z,15.17
2018-09-15T02:25:39.532Z,16.00
2018-09-15T02:28:08.845Z,16.97
2018-09-15T02:30:37.995Z,17.67
2018-09-15T02:33:07.070Z,16.97
2018-09-15T02:35:36.125Z,16.73
2018-09-15T02:38:06.161Z,15.33
2018-09-15T02:40:35.208Z,15.40
2018-09-15T02:43:04.318Z,15.60
2018-09-15T02:45:33.369Z,17.20
2018-09-15T02:48:03.082Z,15.00
2018-09-15T02:50:32.132Z,16.20
2018-09-15T02:53:01.368Z,15.90
2018-09-15T02:55:30.416Z,15.50
2018-09-15T02:57:59.485Z,14.97
2018-09-15T03:00:28.524Z,15.60
2018-09-15T03:02:57.584Z,15.33
2018-09-15T03:05:26.736Z,16.27
2018-09-15T03:07:56.057Z,16.90
2018-09-15T03:10:25.196Z,16.67
2018-09-15T03:12:54.779Z,16.57
2018-09-15T03:15:23.863Z,15.60
2018-09-15T03:17:52.899Z,15.03
2018-09-15T03:20:22.066Z,16.77
2018-09-15T03:22:51.369Z,15.60
2018-09-15T03:25:20.551Z,17.43
2018-09-15T03:27:49.711Z,15.83
2018-09-15T03:30:18.776Z,15.80
2018-09-15T03:32:47.836Z,16.37
2018-09-15T03:35:17.028Z,16.20
2018-09-15T03:37:46.138Z,15.97
2018-09-15T03:40:15.152Z,15.67
2018-09-15T03:42:44.340Z,15.50
2018-09-15T03:45:13.388Z,15.27
2018-09-15T03:47:43.449Z,13.87
2018-09-15T03:50:12.508Z,14.30
2018-09-15T03:52:41.631Z,14.03
2018-09-15T03:55:10.741Z,14.43
2018-09-15T03:57:39.835Z,13.90
2018-09-15T04:00:08.960Z,13.00
2018-09-15T04:02:38.968Z,12.53
2018-09-15T04:05:08.040Z,13.67
2018-09-15T04:07:37.132Z,13.43
2018-09-15T04:10:06.336Z,11.70
2018-09-15T04:12:36.108Z,12.87
2018-09-15T04:15:05.229Z,13.63
2018-09-15T04:17:34.393Z,12.63
2018-09-15T04:20:03.444Z,10.77
2018-09-15T04:22:32.483Z,12.13
2018-09-15T04:25:01.533Z,12.80
2018-09-15T04:27:30.635Z,11.93
2018-09-15T04:29:59.693Z,13.70
2018-09-15T04:32:28.746Z,12.70
2018-09-15T04:34:57.797Z,13.23
2018-09-15T04:37:26.956Z,13.17
2018-09-15T04:39:55.988Z,12.73
2018-09-15T04:42:25.824Z,12.43
2018-09-15T04:44:54.974Z,12.57
2018-09-15T04:47:24.066Z,11.10
2018-09-15T04:49:53.143Z,11.23
2018-09-15T04:52:23.561Z,11.80
2018-09-15T04:54:52.760Z,13.60
2018-09-15T04:57:21.827Z,11.63
2018-09-15T04:59:50.977Z,11.53
2018-09-15T05:02:20.070Z,11.23
2018-09-15T05:04:49.117Z,11.83
2018-09-15T05:07:18.738Z,12.47
2018-09-15T05:09:47.809Z,11.83
2018-09-15T05:12:16.883Z,13.50
2018-09-15T05:14:46.891Z,12.20
2018-09-15T05:17:15.985Z,12.47
2018-09-15T05:19:45.508Z,11.33
2018-09-15T05:22:14.721Z,12.40
2018-09-15T05:24:43.723Z,12.00
2018-09-15T05:27:13.988Z,12.60
2018-09-15T05:29:43.025Z,11.80
2018-09-15T05:32:12.092Z,10.20
2018-09-15T05:34:41.385Z,11.50
2018-09-15T05:37:10.504Z,12.53
2018-09-15T05:39:39.691Z,12.10
2018-09-15T05:42:08.760Z,12.87
2018-09-15T05:44:37.863Z,13.10
2018-09-15T05:47:07.082Z,13.97
2018-09-15T05:49:36.227Z,13.27
2018-09-15T05:52:05.218Z,12.37
2018-09-15T05:54:34.305Z,13.70
2018-09-15T05:57:03.388Z,12.17
2018-09-15T05:59:32.485Z,12.70
2018-09-15T06:02:01.694Z,11.67
2018-09-15T06:04:30.782Z,12.23
2018-09-15T06:06:59.948Z,11.43
2018-09-15T06:09:29.279Z,11.70
2018-09-15T06:11:58.359Z,12.07
2018-09-15T06:14:27.590Z,11.80
2018-09-15T06:16:57.546Z,11.80
2018-09-15T06:19:26.644Z,12.57
2018-09-15T06:21:55.921Z,12.73
2018-09-15T06:24:25.179Z,12.30
2018-09-15T06:26:54.268Z,11.77
2018-09-15T06:29:23.437Z,11.53
2018-09-15T06:31:52.678Z,12.70
2018-09-15T06:34:21.971Z,12.13
2018-09-15T06:36:51.727Z,11.37
2018-09-15T06:39:20.825Z,12.50
2018-09-15T06:41:49.944Z,11.90
2018-09-15T06:44:19.132Z,11.00
2018-09-15T06:46:48.203Z,10.63
2018-09-15T06:49:17.584Z,10.73
2018-09-15T06:51:46.697Z,10.80
2018-09-15T06:54:15.885Z,10.30
2018-09-15T06:56:44.961Z,10.10
2018-09-15T06:59:14.151Z,9.53
2018-09-15T07:01:43.280Z,10.10
2018-09-15T07:04:13.412Z,9.10
2018-09-15T07:06:42.790Z,9.90
2018-09-15T07:09:13.101Z,9.17
2018-09-15T07:11:42.147Z,9.43
2018-09-15T07:14:11.932Z,9.97
2018-09-15T07:16:41.119Z,9.73
2018-09-15T07:19:10.261Z,10.33
2018-09-15T07:21:39.341Z,10.57
2018-09-15T07:24:08.512Z,10.10
2018-09-15T07:26:37.609Z,9.70
2018-09-15T07:29:06.885Z,10.07
2018-09-15T07:31:36.222Z,9.23
2018-09-15T07:34:05.216Z,9.43
2018-09-15T07:36:34.296Z,9.70
2018-09-15T07:39:04.397Z,10.00
2018-09-15T07:41:33.515Z,9.70
2018-09-15T07:44:03.104Z,8.87
2018-09-15T07:46:32.194Z,10.27
2018-09-15T07:49:01.985Z,9.90
2018-09-15T07:51:31.188Z,9.20
2018-09-15T07:54:00.311Z,8.10
2018-09-15T07:56:29.486Z,9.33
2018-09-15T07:58:59.161Z,8.63
2018-09-15T08:01:28.160Z,9.43
2018-09-15T08:03:57.312Z,8.47
2018-09-15T08:06:26.391Z,9.60
2018-09-15T08:08:55.598Z,8.37
2018-09-15T08:11:24.762Z,7.97
2018-09-15T08:13:54.542Z,8.00
2018-09-15T08:16:24.136Z,8.73
2018-09-15T08:18:53.377Z,8.40
2018-09-15T08:21:23.153Z,8.30
2018-09-15T08:23:52.241Z,8.80
2018-09-15T08:26:22.288Z,9.13
2018-09-15T08:28:51.368Z,8.20
2018-09-15T08:31:20.548Z,8.40
2018-09-15T08:33:49.687Z,9.00
2018-09-15T08:36:18.745Z,7.97
2018-09-15T08:38:47.870Z,7.93
2018-09-15T08:41:16.949Z,8.50
2018-09-15T08:43:46.031Z,7.73
2018-09-15T08:46:15.145Z,9.60
2018-09-15T08:48:44.214Z,8.87
2018-09-15T08:51:13.293Z,8.90
2018-09-15T08:53:42.417Z,9.33
2018-09-15T08:56:11.592Z,9.53
2018-09-15T08:58:40.628Z,9.47
2018-09-15T09:01:09.803Z,8.90
2018-09-15T09:03:38.902Z,9.50
2018-09-15T09:06:07.989Z,8.57
2018-09-15T09:08:37.612Z,7.80
2018-09-15T09:11:06.781Z,7.80
2018-09-15T09:13:35.832Z,8.33
2018-09-15T09:16:05.082Z,7.33
2018-09-15T09:18:34.267Z,7.13
2018-09-15T09:21:03.368Z,6.50
2018-09-15T09:23:32.447Z,7.00
2018-09-15T09:26:02.519Z,7.23
2018-09-15T09:28:31.470Z,6.50
2018-09-15T09:31:00.571Z,7.00
2018-09-15T09:33:29.724Z,6.93
2018-09-15T09:35:59.445Z,6.83
2018-09-15T09:38:28.479Z,6.60
2018-09-15T09:40:57.784Z,7.73
2018-09-15T09:43:26.872Z,7.07
2018-09-15T09:45:55.935Z,6.60
2018-09-15T09:48:25.176Z,7.90
2018-09-15T09:50:54.288Z,7.70
2018-09-15T09:53:23.978Z,7.53
2018-09-15T09:55:53.062Z,6.70
2018-09-15T09:58:22.208Z,6.87
2018-09-15T10:00:56.735Z,6.20
2018-09-15T10:03:26.191Z,5.00
2018-09-15T10:05:55.263Z,5.33
2018-09-15T10:08:24.322Z,4.70
2018-09-15T10:10:53.464Z,5.60
2018-09-15T10:13:22.600Z,5.03
2018-09-15T10:15:51.894Z,5.13
2018-09-15T10:18:21.168Z,4.40
2018-09-15T10:20:50.924Z,4.43
2018-09-15T10:23:20.168Z,4.67
2018-09-15T10:25:49.475Z,4.17
2018-09-15T10:28:19.016Z,3.80
2018-09-15T10:30:48.096Z,4.57
2018-09-15T10:33:18.188Z,5.10
2018-09-15T10:35:47.265Z,5.10
2018-09-15T10:38:16.378Z,4.40
2018-09-15T10:40:45.466Z,4.77
2018-09-15T10:43:15.175Z,4.17
2018-09-15T10:45:44.465Z,3.93
2018-09-15T10:48:13.738Z,3.93
2018-09-15T10:50:42.784Z,4.77
2018-09-15T10:53:11.924Z,5.00
2018-09-15T10:55:41.142Z,4.33
2018-09-15T10:58:10.210Z,4.00
2018-09-15T11:00:39.351Z,4.70
2018-09-15T11:03:08.545Z,3.80
2018-09-15T11:05:38.311Z,4.03
2018-09-15T11:08:07.472Z,4.10
2018-09-15T11:10:36.590Z,4.30
2018-09-15T11:13:06.818Z,3.70
2018-09-15T11:15:36.466Z,4.60
2018-09-15T11:18:05.873Z,3.90
2018-09-15T11:20:35.562Z,3.70
2018-09-15T11:23:04.917Z,3.60
2018-09-15T11:25:34.820Z,3.50
2018-09-15T11:28:03.975Z,4.67
2018-09-15T11:30:33.119Z,4.37
2018-09-15T11:33:02.291Z,3.77
2018-09-15T11:35:31.552Z,4.10
2018-09-15T11:38:01.389Z,3.70
2018-09-15T11:40:30.552Z,3.27
2018-09-15T11:43:00.285Z,4.03
2018-09-15T11:45:30.112Z,4.00
2018-09-15T11:47:59.224Z,4.03
2018-09-15T11:50:28.444Z,4.10
2018-09-15T11:52:58.153Z,4.23
2018-09-15T11:55:27.222Z,4.47
2018-09-15T11:57:56.447Z,4.13
2018-09-15T12:00:27.927Z,3.93
2018-09-15T12:02:57.096Z,4.03
2018-09-15T12:05:26.210Z,3.87
2018-09-15T12:07:55.967Z,3.80
2018-09-15T12:10:25.095Z,3.77
2018-09-15T12:12:54.276Z,4.70
2018-09-15T12:15:23.388Z,3.70
2018-09-15T12:17:52.523Z,4.20
2018-09-15T12:20:21.570Z,4.40
2018-09-15T12:22:50.713Z,5.23
2018-09-15T12:25:20.002Z,4.70
2018-09-15T12:27:48.967Z,4.07
2018-09-15T12:31:21.154Z,3.97
2018-09-15T12:33:50.202Z,4.00
2018-09-15T12:36:19.320Z,3.20
2018-09-15T12:38:48.150Z,3.90
2018-09-15T12:41:17.604Z,4.20
2018-09-15T12:43:46.756Z,3.97
2018-09-15T12:46:15.808Z,3.77
2018-09-15T12:48:44.856Z,4.00
2018-09-15T12:51:13.977Z,4.17
2018-09-15T12:53:43.117Z,3.87
2018-09-15T12:56:12.909Z,4.40
2018-09-15T12:58:42.707Z,4.40
2018-09-15T13:01:11.887Z,3.90
2018-09-15T13:03:40.971Z,3.53
2018-09-15T13:06:10.013Z,3.90
2018-09-15T13:08:39.341Z,3.33
2018-09-15T13:11:08.052Z,3.23
2018-09-15T13:13:37.037Z,4.00
2018-09-15T13:16:06.253Z,2.97
2018-09-15T13:18:35.288Z,3.37
2018-09-15T13:21:04.387Z,3.50
2018-09-15T13:23:33.615Z,3.97
2018-09-15T13:26:02.773Z,3.93
2018-09-15T13:28:31.833Z,3.80
2018-09-15T13:31:01.338Z,3.93
2018-09-15T13:33:30.565Z,3.60
2018-09-15T13:35:59.599Z,3.57
2018-09-15T13:38:28.692Z,3.60
2018-09-15T13:40:57.796Z,3.47
2018-09-15T13:43:26.946Z,3.50
2018-09-15T13:45:55.989Z,4.17
2018-09-15T13:48:25.184Z,3.33
2018-09-15T13:50:54.286Z,2.87
2018-09-15T13:53:23.396Z,3.43
2018-09-15T13:55:52.432Z,3.10
2018-09-15T13:58:21.604Z,3.60
2018-09-15T14:00:50.646Z,2.70
2018-09-15T14:03:20.569Z,2.60
2018-09-15T14:05:49.792Z,3.60
2018-09-15T14:08:18.900Z,3.07
2018-09-15T14:10:48.151Z,3.30
2018-09-15T14:13:17.100Z,2.93
2018-09-15T14:15:46.272Z,3.10
2018-09-15T14:18:16.119Z,2.70
2018-09-15T14:20:45.189Z,3.30
2018-09-15T14:23:14.227Z,2.90
2018-09-15T14:25:43.527Z,2.80
2018-09-15T14:28:12.825Z,3.87
2018-09-15T14:30:42.439Z,3.30
2018-09-15T14:33:11.937Z,3.43
2018-09-15T14:35:41.585Z,3.10
2018-09-15T14:38:10.662Z,3.00
2018-09-15T14:40:39.785Z,2.77
2018-09-15T14:43:08.901Z,2.90
2018-09-15T14:45:38.004Z,2.60
2018-09-15T14:48:07.092Z,2.80
2018-09-15T14:50:36.239Z,2.43
2018-09-15T14:53:05.996Z,2.60
2018-09-15T14:55:35.066Z,2.40
2018-09-15T14:58:04.138Z,2.40
2018-09-15T15:00:33.217Z,2.20
2018-09-15T15:03:04.422Z,2.40
2018-09-15T15:05:33.567Z,2.17
2018-09-15T15:08:02.681Z,2.63
2018-09-15T15:10:31.871Z,2.70
2018-09-15T15:13:01.021Z,2.23
2018-09-15T15:15:30.986Z,2.17
2018-09-15T15:18:00.721Z,2.10
2018-09-15T15:20:29.929Z,2.07
2018-09-15T15:22:59.016Z,1.83
2018-09-15T15:25:28.121Z,2.70
2018-09-15T15:27:57.264Z,2.50
2018-09-15T15:30:26.518Z,2.50
2018-09-15T15:32:55.574Z,2.23
2018-09-15T15:35:24.709Z,1.90
2018-09-15T15:37:53.798Z,2.40
2018-09-15T15:40:22.996Z,2.13
2018-09-15T15:42:52.063Z,2.10
2018-09-15T15:45:22.278Z,2.07
2018-09-15T15:47:51.322Z,2.43
2018-09-15T15:50:20.537Z,2.40
2018-09-15T15:52:49.691Z,2.70
2018-09-15T15:55:19.744Z,1.87
2018-09-15T15:57:50.605Z,2.03
2018-09-15T16:00:19.788Z,2.00
2018-09-15T16:02:49.809Z,1.60
2018-09-15T16:05:19.009Z,2.00
2018-09-15T16:07:48.267Z,2.30
2018-09-15T16:10:17.435Z,1.87
2018-09-15T16:12:47.273Z,2.10
2018-09-15T16:15:16.972Z,2.20
2018-09-15T16:17:46.044Z,1.80
2018-09-15T16:20:15.856Z,2.57
2018-09-15T16:22:45.165Z,1.83
2018-09-15T16:25:14.260Z,1.90
2018-09-15T16:27:43.877Z,1.90
2018-09-15T16:30:14.201Z,2.50
2018-09-15T16:32:43.275Z,2.00
2018-09-15T16:35:12.553Z,1.97
2018-09-15T16:37:42.196Z,1.83
2018-09-15T16:40:11.363Z,2.30
2018-09-15T16:42:40.615Z,2.23
2018-09-15T16:45:09.699Z,3.10
2018-09-15T16:47:38.792Z,2.63
2018-09-15T16:50:07.534Z,2.70
2018-09-15T16:52:36.579Z,2.17
2018-09-15T16:55:05.837Z,2.30
2018-09-15T16:57:34.992Z,2.63
2018-09-15T17:00:04.568Z,2.70
2018-09-15T17:02:33.617Z,2.60
2018-09-15T17:05:02.747Z,2.70
2018-09-15T17:07:31.910Z,2.73
2018-09-15T17:10:01.452Z,2.83
2018-09-15T17:12:30.532Z,2.93
2018-09-15T17:14:59.581Z,2.87
2018-09-15T17:17:28.661Z,3.30
2018-09-15T17:19:57.764Z,3.60
2018-09-15T17:22:26.862Z,2.83
2018-09-15T17:24:56.615Z,2.70
2018-09-15T17:27:25.663Z,2.80
2018-09-15T17:29:55.303Z,3.07
2018-09-15T17:32:24.421Z,2.60
2018-09-15T17:34:53.580Z,3.47
2018-09-15T17:37:22.780Z,3.60
2018-09-15T17:39:51.998Z,3.07
2018-09-15T17:42:21.124Z,3.30
2018-09-15T17:44:50.372Z,3.10
2018-09-15T17:47:20.207Z,3.10
2018-09-15T17:49:49.500Z,3.80
2018-09-15T17:52:18.585Z,3.10
2018-09-15T17:54:47.405Z,3.50
2018-09-15T17:57:16.265Z,3.57
2018-09-15T17:59:45.482Z,3.83
2018-09-15T18:02:14.790Z,3.70
2018-09-15T18:04:44.200Z,3.63
2018-09-15T18:07:13.462Z,3.47
2018-09-15T18:09:42.762Z,4.13
2018-09-15T18:12:11.740Z,3.60
2018-09-15T18:14:40.861Z,4.30
2018-09-15T18:17:09.987Z,3.57
2018-09-15T18:19:39.049Z,4.30
2018-09-15T18:22:08.234Z,4.03
2018-09-15T18:24:37.254Z,4.20
2018-09-15T18:27:06.787Z,4.20
2018-09-15T18:29:36.156Z,4.60
2018-09-15T18:32:05.237Z,4.13
2018-09-15T18:34:34.464Z,3.90
2018-09-15T18:37:03.654Z,3.53
2018-09-15T18:39:32.764Z,3.83
2018-09-15T18:42:02.255Z,4.00
2018-09-15T18:44:31.327Z,4.83
2018-09-15T18:47:00.487Z,4.27
2018-09-15T18:49:29.591Z,3.73
2018-09-15T18:51:59.454Z,3.67
2018-09-15T18:54:28.564Z,3.70
2018-09-15T18:56:57.632Z,3.27
2018-09-15T18:59:26.796Z,3.70
2018-09-15T19:01:55.869Z,3.90
2018-09-15T19:04:25.119Z,4.70
2018-09-15T19:06:54.224Z,4.10
2018-09-15T19:09:23.945Z,3.73
2018-09-15T19:11:53.097Z,3.80
2018-09-15T19:14:22.203Z,4.00
2018-09-15T19:16:51.342Z,3.47
2018-09-15T19:19:20.466Z,3.80
2018-09-15T19:21:49.922Z,4.10
2018-09-15T19:24:18.981Z,3.90
2018-09-15T19:26:48.122Z,4.20
2018-09-15T19:29:17.220Z,3.60
2018-09-15T19:31:46.457Z,4.20
2018-09-15T19:34:15.589Z,4.80
2018-09-15T19:36:44.668Z,4.40
2018-09-15T19:39:14.796Z,4.60
2018-09-15T19:41:44.612Z,4.30
2018-09-15T19:44:13.657Z,5.40
2018-09-15T19:46:42.753Z,5.00
2018-09-15T19:49:12.364Z,5.00
2018-09-15T19:51:41.540Z,4.03
2018-09-15T19:54:10.641Z,5.07
2018-09-15T19:56:39.968Z,5.47
2018-09-15T19:59:09.106Z,4.53
2018-09-15T20:01:38.113Z,4.83
2018-09-15T20:04:07.200Z,4.70
2018-09-15T20:06:36.281Z,4.90
2018-09-15T20:09:08.023Z,4.83
2018-09-15T20:11:37.182Z,4.23
2018-09-15T20:14:07.144Z,4.57
2018-09-15T20:16:35.040Z,6.60
2018-09-15T20:19:03.112Z,4.90
2018-09-15T20:21:31.084Z,5.70
2018-09-15T20:24:00.831Z,5.43
2018-09-15T20:26:29.969Z,6.07
2018-09-15T20:28:59.664Z,5.50
2018-09-15T20:31:30.417Z,5.03
2018-09-15T20:34:00.276Z,6.10
2018-09-15T20:36:30.220Z,6.13
2018-09-15T20:39:00.020Z,6.03
2018-09-15T20:41:29.114Z,5.83
2018-09-15T20:43:58.177Z,5.70
2018-09-15T20:46:27.256Z,6.07
2018-09-15T20:48:56.547Z,7.10
2018-09-15T20:51:25.592Z,6.97
2018-09-15T20:53:54.732Z,7.03
2018-09-15T20:56:23.880Z,7.37
2018-09-15T20:58:53.695Z,6.87
2018-09-15T21:01:22.841Z,6.90
2018-09-15T21:03:52.440Z,6.70
2018-09-15T21:06:21.961Z,6.53
2018-09-15T21:08:52.303Z,5.90
2018-09-15T21:11:22.408Z,6.90
2018-09-15T21:13:52.043Z,6.90
2018-09-15T21:16:21.084Z,6.70
2018-09-15T21:18:50.385Z,8.00
2018-09-15T21:21:19.500Z,6.57
2018-09-15T21:23:49.144Z,7.07
2018-09-15T21:26:18.342Z,7.00
2018-09-15T21:28:47.598Z,7.43
2018-09-15T21:31:17.361Z,7.50
2018-09-15T21:33:46.608Z,7.30
2018-09-15T21:36:15.903Z,7.50
2018-09-15T21:38:45.131Z,6.47
2018-09-15T21:41:14.264Z,6.57
2018-09-15T21:43:43.520Z,7.80
2018-09-15T21:47:16.133Z,7.43
2018-09-15T21:49:45.240Z,8.20
2018-09-15T21:52:14.337Z,7.80
2018-09-15T21:54:43.429Z,8.40
2018-09-15T21:57:12.477Z,8.30
2018-09-15T21:59:41.745Z,7.50
2018-09-15T22:02:10.824Z,6.70
2018-09-15T22:04:40.054Z,8.00
2018-09-15T22:07:09.161Z,8.20
2018-09-15T22:09:38.313Z,8.60
2018-09-15T22:12:07.380Z,7.77
2018-09-15T22:14:36.424Z,7.47
2018-09-15T22:17:05.542Z,7.67
2018-09-15T22:19:34.793Z,7.93
2018-09-15T22:22:03.853Z,7.30
2018-09-15T22:24:32.899Z,8.10
2018-09-15T22:27:02.028Z,8.17
2018-09-15T22:29:31.099Z,8.00
2018-09-15T22:32:00.130Z,7.83
2018-09-15T22:34:29.776Z,7.67
2018-09-15T22:36:58.937Z,7.47
2018-09-15T22:39:28.070Z,8.17
2018-09-15T22:41:57.127Z,7.73
2018-09-15T22:44:26.276Z,8.10
2018-09-15T22:46:55.380Z,8.90
2018-09-15T22:49:24.448Z,7.30
2018-09-15T22:51:54.045Z,7.90
2018-09-15T22:54:23.189Z,7.80
2018-09-15T22:56:52.334Z,7.30
2018-09-15T22:59:21.415Z,8.00
2018-09-15T23:01:51.040Z,8.10
2018-09-15T23:04:20.217Z,7.80
2018-09-15T23:06:49.247Z,7.47
2018-09-15T23:09:19.125Z,8.07
2018-09-15T23:11:48.801Z,7.47
2018-09-15T23:14:17.858Z,7.30
2018-09-15T23:16:47.011Z,8.13
2018-09-15T23:19:16.071Z,7.40
2018-09-15T23:21:45.133Z,6.83
2018-09-15T23:24:14.352Z,7.67
2018-09-15T23:26:43.424Z,7.20
2018-09-15T23:29:12.533Z,8.20
2018-09-15T23:31:41.724Z,7.73
2018-09-15T23:34:10.763Z,8.13
2018-09-15T23:36:40.587Z,7.73
2018-09-15T23:39:09.687Z,7.80
2018-09-15T23:41:39.545Z,8.23
2018-09-15T23:44:08.612Z,7.63
2018-09-15T23:46:37.679Z,6.93
2018-09-15T23:49:06.763Z,7.30
2018-09-15T23:51:35.817Z,8.20
2018-09-15T23:54:05.673Z,8.60
2018-09-15T23:56:34.753Z,8.87
2018-09-15T23:59:03.848Z,8.67
